createdAt,value
2022-09-02T00:01:47.717Z,82.15
2022-09-02T00:04:50.990Z,81.50
2022-09-02T00:07:55.482Z,83.64
2022-09-02T00:11:01.188Z,83.53
2022-09-02T00:14:14.251Z,83.91
2022-09-02T00:17:19.013Z,85.43
2022-09-02T00:20:22.722Z,85.69
2022-09-02T00:23:27.398Z,85.23
2022-09-02T00:26:30.799Z,85.08
2022-09-02T00:29:34.197Z,84.88
2022-09-02T00:32:39.103Z,85.22
2022-09-02T00:35:43.039Z,84.03
2022-09-02T00:38:46.691Z,83.42
2022-09-02T00:41:50.246Z,82.37
2022-09-02T00:44:54.276Z,81.87
2022-09-02T00:47:58.963Z,81.56
2022-09-02T00:51:04.356Z,82.09
2022-09-02T00:54:11.694Z,82.36
2022-09-02T00:57:19.707Z,83.12
2022-09-02T01:00:25.289Z,86.50
2022-09-02T01:03:36.262Z,86.30
2022-09-02T01:06:40.027Z,86.18
2022-09-02T01:09:43.577Z,89.64
2022-09-02T01:12:47.505Z,88.41
2022-09-02T01:15:56.310Z,88.57
2022-09-02T01:19:04.915Z,90.39
2022-09-02T01:22:16.838Z,88.16
2022-09-02T01:25:23.357Z,91.79
2022-09-02T01:28:27.022Z,92.06
2022-09-02T01:31:30.505Z,91.74
2022-09-02T01:34:36.693Z,93.33
2022-09-02T01:37:42.244Z,93.08
2022-09-02T01:40:58.295Z,93.38
2022-09-02T01:44:01.857Z,92.07
2022-09-02T01:47:06.023Z,89.54
2022-09-02T01:50:11.410Z,90.76
2022-09-02T01:53:16.711Z,91.54
2022-09-02T01:56:20.162Z,92.85
2022-09-02T01:59:25.049Z,91.07
2022-09-02T02:02:29.840Z,92.44
2022-09-02T02:05:33.573Z,91.16
2022-09-02T02:08:40.096Z,91.90
2022-09-02T02:11:44.136Z,90.93
2022-09-02T02:14:49.740Z,89.86
2022-09-02T02:17:53.176Z,92.95
2022-09-02T02:20:56.528Z,91.25
2022-09-02T02:24:02.539Z,90.49
2022-09-02T02:27:06.202Z,90.45
2022-09-02T02:30:11.646Z,91.42
2022-09-02T02:33:15.250Z,91.38
2022-09-02T02:36:19.867Z,90.61
2022-09-02T02:39:24.807Z,90.37
2022-09-02T02:42:28.237Z,90.89
2022-09-02T02:45:31.918Z,91.65
2022-09-02T02:48:36.929Z,91.82
2022-09-02T02:51:41.195Z,92.05
2022-09-02T02:54:45.899Z,92.96
2022-09-02T02:57:49.436Z,93.00
2022-09-02T03:00:54.169Z,95.03
2022-09-02T03:03:58.083Z,96.71
2022-09-02T03:07:01.539Z,97.02
2022-09-02T03:10:09.461Z,94.79
2022-09-02T03:13:15.703Z,94.52
2022-09-02T03:16:22.052Z,93.46
2022-09-02T03:19:25.382Z,93.33
2022-09-02T03:22:29.633Z,93.26
2022-09-02T03:25:36.255Z,93.99
2022-09-02T03:28:52.163Z,95.31
2022-09-02T03:31:56.261Z,96.50
2022-09-02T03:35:00.750Z,94.60
2022-09-02T03:38:04.106Z,93.66
2022-09-02T03:41:08.906Z,93.26
2022-09-02T03:44:12.967Z,94.20
2022-09-02T03:47:20.896Z,94.25
2022-09-02T03:50:32.607Z,92.75
2022-09-02T03:53:36.452Z,93.23
2022-09-02T03:56:41.259Z,92.84
2022-09-02T03:59:45.519Z,90.83
2022-09-02T04:02:50.135Z,91.68
2022-09-02T04:05:55.283Z,90.45
2022-09-02T04:09:01.070Z,91.71
2022-09-02T04:12:07.204Z,91.93
2022-09-02T04:15:13.709Z,92.77
2022-09-02T04:18:18.862Z,91.73
2022-09-02T04:21:22.293Z,90.38
2022-09-02T04:24:25.606Z,89.96
2022-09-02T04:27:30.906Z,89.41
2022-09-02T04:30:34.471Z,90.31
2022-09-02T04:33:39.421Z,89.68
2022-09-02T04:36:46.746Z,90.20
2022-09-02T04:39:50.400Z,89.74
2022-09-02T04:42:55.803Z,90.72
2022-09-02T04:46:01.706Z,89.71
2022-09-02T04:49:06.173Z,89.63
2022-09-02T04:52:10.695Z,89.58
2022-09-02T04:55:15.828Z,89.33
2022-09-02T04:58:21.122Z,87.35
2022-09-02T05:01:27.828Z,86.05
2022-09-02T05:04:34.438Z,86.85
2022-09-02T05:07:39.387Z,86.49
2022-09-02T05:10:44.055Z,86.08
2022-09-02T05:13:51.661Z,87.91
2022-09-02T05:16:57.318Z,86.25
2022-09-02T05:20:00.867Z,86.45
2022-09-02T05:23:04.255Z,86.25
2022-09-02T05:26:08.783Z,88.61
2022-09-02T05:29:15.587Z,88.52
2022-09-02T05:32:19.644Z,88.59
2022-09-02T05:35:25.021Z,88.44
2022-09-02T05:38:29.288Z,85.45
2022-09-02T05:41:33.946Z,85.55
2022-09-02T05:44:40.266Z,86.34
2022-09-02T05:47:44.544Z,88.16
2022-09-02T05:50:50.320Z,86.38
2022-09-02T05:54:02.879Z,85.05
2022-09-02T05:57:09.507Z,85.80
2022-09-02T06:00:18.110Z,85.72
2022-09-02T06:03:30.961Z,86.52
2022-09-02T06:06:36.016Z,84.26
2022-09-02T06:09:41.182Z,84.31
2022-09-02T06:12:45.081Z,86.23
2022-09-02T06:15:51.501Z,85.77
2022-09-02T06:18:55.863Z,83.38
2022-09-02T06:22:00.083Z,82.50
2022-09-02T06:25:03.611Z,82.94
2022-09-02T06:28:08.035Z,84.61
2022-09-02T06:31:19.300Z,85.68
2022-09-02T06:34:26.988Z,86.51
2022-09-02T06:37:31.862Z,84.32
2022-09-02T06:40:35.874Z,85.07
2022-09-02T06:43:42.769Z,83.29
2022-09-02T06:47:07.435Z,82.48
2022-09-02T06:50:11.569Z,82.05
2022-09-02T06:53:15.235Z,80.75
2022-09-02T06:56:19.337Z,80.42
2022-09-02T06:59:23.840Z,79.89
2022-09-02T07:02:31.838Z,79.51
2022-09-02T07:05:34.972Z,78.88
2022-09-02T07:08:39.456Z,78.91
2022-09-02T07:11:43.533Z,77.67
2022-09-02T07:14:47.209Z,76.82
2022-09-02T07:17:57.427Z,74.15
2022-09-02T07:21:10.723Z,72.34
2022-09-02T07:24:16.758Z,70.41
2022-09-02T07:27:21.383Z,72.69
2022-09-02T07:30:26.693Z,72.85
2022-09-02T07:33:41.495Z,72.69
2022-09-02T07:36:46.848Z,74.53
2022-09-02T07:39:50.325Z,76.21
2022-09-02T07:42:54.822Z,75.00
2022-09-02T07:46:00.931Z,75.01
2022-09-02T07:49:09.738Z,76.12
2022-09-02T07:52:13.615Z,76.18
2022-09-02T07:55:18.095Z,73.89
2022-09-02T07:58:23.807Z,73.56
2022-09-02T08:01:28.685Z,72.91
2022-09-02T08:04:33.646Z,72.17
2022-09-02T08:07:41.785Z,72.70
2022-09-02T08:10:47.095Z,72.62
2022-09-02T08:13:50.468Z,73.25
2022-09-02T08:16:54.345Z,72.25
2022-09-02T08:19:59.585Z,72.21
2022-09-02T08:23:11.840Z,71.77
2022-09-02T08:26:22.222Z,71.80
2022-09-02T08:29:27.013Z,72.22
2022-09-02T08:32:32.927Z,71.26
2022-09-02T08:35:37.734Z,72.34
2022-09-02T08:38:41.257Z,72.04
2022-09-02T08:41:56.031Z,71.76
2022-09-02T08:45:06.160Z,71.40
2022-09-02T08:48:20.530Z,70.40
2022-09-02T08:51:37.331Z,69.62
2022-09-02T08:54:53.108Z,68.64
2022-09-02T08:57:57.409Z,70.85
2022-09-02T09:01:09.322Z,71.45
2022-09-02T09:04:34.279Z,72.01
2022-09-02T09:08:12.351Z,76.09
2022-09-02T09:11:38.631Z,78.24
2022-09-02T09:14:56.023Z,80.92
2022-09-02T09:18:17.108Z,79.78
2022-09-02T09:21:46.185Z,80.00
2022-09-02T09:24:51.864Z,79.78
2022-09-02T09:27:55.202Z,82.26
2022-09-02T09:31:01.742Z,83.26
2022-09-02T09:34:06.797Z,83.62
2022-09-02T09:37:10.164Z,87.41
2022-09-02T09:40:30.883Z,88.65
2022-09-02T09:43:34.233Z,88.22
2022-09-02T09:46:37.575Z,92.18
2022-09-02T09:49:40.855Z,92.33
2022-09-02T09:52:44.294Z,90.29
2022-09-02T09:55:57.675Z,86.74
2022-09-02T09:59:01.078Z,88.37
2022-09-02T10:02:04.733Z,85.83
2022-09-02T10:05:22.877Z,82.61
2022-09-02T10:08:33.793Z,82.26
2022-09-02T10:11:54.931Z,80.52
2022-09-02T10:15:01.556Z,79.37
2022-09-02T10:18:15.560Z,78.80
2022-09-02T10:21:36.275Z,78.01
2022-09-02T10:24:54.275Z,78.02
2022-09-02T10:28:17.117Z,77.40
2022-09-02T10:31:30.380Z,76.89
2022-09-02T10:34:41.395Z,76.98
2022-09-02T10:38:01.296Z,77.53
2022-09-02T10:41:27.873Z,77.95
2022-09-02T10:44:38.361Z,75.41
2022-09-02T10:47:41.913Z,77.13
2022-09-02T10:50:50.372Z,76.94
2022-09-02T10:54:09.740Z,75.53
2022-09-02T10:57:17.253Z,75.12
2022-09-02T11:00:25.734Z,77.64
2022-09-02T11:03:42.499Z,73.70
2022-09-02T11:07:04.078Z,75.32
2022-09-02T11:10:16.156Z,78.39
2022-09-02T11:13:26.946Z,77.27
2022-09-02T11:16:40.190Z,75.79
2022-09-02T11:19:55.516Z,77.92
2022-09-02T11:23:03.355Z,80.21
2022-09-02T11:26:30.921Z,77.44
2022-09-02T11:29:42.362Z,78.05
2022-09-02T11:32:55.079Z,77.54
2022-09-02T11:36:00.954Z,76.90
2022-09-02T11:39:09.547Z,78.31
2022-09-02T11:42:28.727Z,78.87
2022-09-02T11:45:49.312Z,78.41
2022-09-02T11:49:30.707Z,82.62
2022-09-02T11:52:50.763Z,82.40
2022-09-02T11:55:57.241Z,82.63
2022-09-02T11:59:00.551Z,82.06
2022-09-02T12:02:04.038Z,83.50
2022-09-02T12:05:44.711Z,84.28
2022-09-02T12:09:05.707Z,83.67
2022-09-02T12:12:10.480Z,84.03
2022-09-02T12:15:22.037Z,81.97
2022-09-02T12:18:33.443Z,82.05
2022-09-02T12:21:39.102Z,82.16
2022-09-02T12:24:52.650Z,84.93
2022-09-02T12:28:19.148Z,84.78
2022-09-02T12:32:09.417Z,85.57
2022-09-02T12:36:05.469Z,83.53
2022-09-02T12:40:01.055Z,82.65
2022-09-02T12:43:49.718Z,82.05
2022-09-02T12:47:32.621Z,83.03
2022-09-02T12:50:56.576Z,84.28
2022-09-02T12:54:00.466Z,83.54
2022-09-02T12:57:05.888Z,82.05
2022-09-02T13:00:14.081Z,81.27
2022-09-02T13:03:37.440Z,79.62
2022-09-02T13:07:11.566Z,81.70
2022-09-02T13:10:56.883Z,80.81
2022-09-02T13:14:36.410Z,82.07
2022-09-02T13:18:12.328Z,82.14
2022-09-02T13:21:49.466Z,82.03
2022-09-02T13:25:23.395Z,81.51
2022-09-02T13:29:13.577Z,82.31
2022-09-02T13:32:24.460Z,81.44
2022-09-02T13:35:29.628Z,80.44
2022-09-02T13:38:34.813Z,80.57
2022-09-02T13:41:38.644Z,83.08
2022-09-02T13:44:42.024Z,84.58
2022-09-02T13:47:48.330Z,83.83
2022-09-02T13:50:54.409Z,82.01
2022-09-02T13:54:22.202Z,83.53
2022-09-02T13:57:26.340Z,82.44
2022-09-02T14:00:34.673Z,82.14
2022-09-02T14:03:39.046Z,83.05
2022-09-02T14:06:45.828Z,86.47
2022-09-02T14:09:51.358Z,82.86
2022-09-02T14:12:56.258Z,83.36
2022-09-02T14:16:33.542Z,81.78
2022-09-02T14:19:37.057Z,81.21
2022-09-02T14:22:40.627Z,81.70
2022-09-02T14:25:53.027Z,83.79
2022-09-02T14:28:56.786Z,83.15
2022-09-02T14:32:15.115Z,83.31
2022-09-02T14:35:24.031Z,83.03
2022-09-02T14:38:28.875Z,82.60
2022-09-02T14:41:37.299Z,82.74
2022-09-02T14:44:40.851Z,82.58
2022-09-02T14:47:44.174Z,82.51
2022-09-02T14:50:47.679Z,82.63
2022-09-02T14:53:51.065Z,84.10
2022-09-02T14:56:55.762Z,82.84
2022-09-02T15:00:00.435Z,84.28
2022-09-02T15:03:03.779Z,85.12
2022-09-02T15:06:09.885Z,83.36
2022-09-02T15:09:17.376Z,82.44
2022-09-02T15:12:25.748Z,85.02
2022-09-02T15:15:29.184Z,88.34
2022-09-02T15:18:32.525Z,86.12
2022-09-02T15:21:35.839Z,89.72
2022-09-02T15:24:39.179Z,93.06
2022-09-02T15:27:43.874Z,94.19
2022-09-02T15:30:47.318Z,93.68
2022-09-02T15:33:52.252Z,96.06
2022-09-02T15:36:57.444Z,96.86
2022-09-02T15:40:01.037Z,96.45
2022-09-02T15:43:05.942Z,95.93
2022-09-02T15:46:21.816Z,96.52
2022-09-02T15:49:25.360Z,93.92
2022-09-02T15:52:28.720Z,93.93
2022-09-02T15:55:33.660Z,94.58
2022-09-02T15:58:38.320Z,93.46
2022-09-02T16:01:44.399Z,93.44
2022-09-02T16:04:47.909Z,93.11
2022-09-02T16:07:52.245Z,92.79
2022-09-02T16:10:55.569Z,92.94
2022-09-02T16:14:00.335Z,94.08
2022-09-02T16:17:03.703Z,93.08
2022-09-02T16:20:07.758Z,91.24
2022-09-02T16:23:11.031Z,91.66
2022-09-02T16:26:16.867Z,94.29
2022-09-02T16:29:21.656Z,92.49
2022-09-02T16:32:27.798Z,91.32
2022-09-02T16:35:31.317Z,91.38
2022-09-02T16:38:35.769Z,89.77
2022-09-02T16:41:42.258Z,91.21
2022-09-02T16:44:47.030Z,90.79
2022-09-02T16:47:54.968Z,90.83
2022-09-02T16:51:03.359Z,90.57
2022-09-02T16:54:07.044Z,91.73
2022-09-02T16:57:10.453Z,90.66
2022-09-02T17:00:17.132Z,89.41
2022-09-02T17:03:20.452Z,89.47
2022-09-02T17:06:23.810Z,92.20
2022-09-02T17:09:27.159Z,89.92
2022-09-02T17:12:30.633Z,90.88
2022-09-02T17:15:35.373Z,90.99
2022-09-02T17:18:38.728Z,88.61
2022-09-02T17:21:44.166Z,88.42
2022-09-02T17:24:51.730Z,87.73
2022-09-02T17:27:56.921Z,88.57
2022-09-02T17:31:05.529Z,88.37
2022-09-02T17:34:10.719Z,86.78
2022-09-02T17:37:14.221Z,89.05
2022-09-02T17:40:31.392Z,86.85
2022-09-02T17:43:38.449Z,87.33
2022-09-02T17:46:44.549Z,86.44
2022-09-02T17:49:49.036Z,85.96
2022-09-02T17:52:52.489Z,86.27
2022-09-02T17:56:06.044Z,85.31
2022-09-02T17:59:19.901Z,86.33
2022-09-02T18:02:57.809Z,88.61
2022-09-02T18:06:12.829Z,86.74
2022-09-02T18:09:20.098Z,87.05
2022-09-02T18:12:24.701Z,85.81
2022-09-02T18:15:28.359Z,85.45
2022-09-02T18:18:33.608Z,85.25
2022-09-02T18:21:49.033Z,89.74
2022-09-02T18:25:03.453Z,89.84
2022-09-02T18:28:17.339Z,90.02
2022-09-02T18:31:35.792Z,90.11
2022-09-02T18:34:52.462Z,87.76
2022-09-02T18:38:06.072Z,88.49
2022-09-02T18:41:23.588Z,89.23
2022-09-02T18:44:36.505Z,88.82
2022-09-02T18:47:45.764Z,88.43
2022-09-02T18:50:54.851Z,87.91
2022-09-02T18:54:03.046Z,87.46
2022-09-02T18:57:09.372Z,87.64
2022-09-02T19:00:16.548Z,88.00
2022-09-02T19:03:20.821Z,87.79
2022-09-02T19:06:34.255Z,86.79
2022-09-02T19:09:36.932Z,88.29
2022-09-02T19:12:40.608Z,88.24
2022-09-02T19:15:43.934Z,87.74
2022-09-02T19:18:47.377Z,89.59
2022-09-02T19:21:55.403Z,88.49
2022-09-02T19:25:03.372Z,90.08
2022-09-02T19:28:07.263Z,88.19
2022-09-02T19:31:18.190Z,87.32
2022-09-02T19:34:22.761Z,85.11
2022-09-02T19:37:27.718Z,84.20
2022-09-02T19:40:33.729Z,84.03
2022-09-02T19:43:40.919Z,85.94
2022-09-02T19:47:30.716Z,84.67
2022-09-02T19:50:08.610Z,86.86
2022-09-02T19:53:19.284Z,89.14
2022-09-02T19:56:22.672Z,89.93
2022-09-02T19:59:26.798Z,89.97
2022-09-02T20:02:30.264Z,89.82
2022-09-02T20:05:33.863Z,87.28
2022-09-02T20:08:38.627Z,87.25
2022-09-02T20:11:41.919Z,90.80
2022-09-02T20:14:45.797Z,91.68
2022-09-02T20:17:50.913Z,89.22
2022-09-02T20:20:56.099Z,87.47
2022-09-02T20:24:06.528Z,86.67
2022-09-02T20:27:19.859Z,87.66
2022-09-02T20:30:23.339Z,88.42
2022-09-02T20:33:35.110Z,91.30
2022-09-02T20:36:47.654Z,88.04
2022-09-02T20:40:13.753Z,86.09
2022-09-02T20:43:35.214Z,84.70
2022-09-02T20:46:56.205Z,85.39
2022-09-02T20:50:13.906Z,86.51
2022-09-02T20:53:42.756Z,85.32
2022-09-02T20:56:53.014Z,84.92
2022-09-02T21:00:04.971Z,84.15
2022-09-02T21:03:12.248Z,83.95
2022-09-02T21:06:15.982Z,84.39
2022-09-02T21:09:29.134Z,84.59
2022-09-02T21:12:40.973Z,83.55
2022-09-02T21:15:49.264Z,84.38
2022-09-02T21:19:02.091Z,84.12
2022-09-02T21:22:10.507Z,83.85
2022-09-02T21:25:18.270Z,82.94
2022-09-02T21:28:30.191Z,83.36
2022-09-02T21:31:36.977Z,82.40
2022-09-02T21:34:45.940Z,83.15
2022-09-02T21:37:54.804Z,84.54
2022-09-02T21:41:12.663Z,84.61
2022-09-02T21:44:24.731Z,84.26
2022-09-02T21:47:36.814Z,85.87
2022-09-02T21:50:46.698Z,86.71
2022-09-02T21:54:02.063Z,87.09
2022-09-02T21:57:40.018Z,88.83
2022-09-02T22:00:50.125Z,87.93
2022-09-02T22:04:04.110Z,88.18
2022-09-02T22:07:19.102Z,88.90
2022-09-02T22:10:32.949Z,89.69
2022-09-02T22:13:40.268Z,90.70
2022-09-02T22:16:54.736Z,90.30
2022-09-02T22:20:02.756Z,88.95
2022-09-02T22:23:14.977Z,92.28
2022-09-02T22:26:29.012Z,92.29
2022-09-02T22:29:38.924Z,90.74
2022-09-02T22:32:46.138Z,92.92
2022-09-02T22:35:56.350Z,93.27
2022-09-02T22:39:32.716Z,93.30
2022-09-02T22:42:38.013Z,92.42
2022-09-02T22:46:04.515Z,91.69
2022-09-02T22:49:32.553Z,92.51
2022-09-02T22:52:49.310Z,93.06
2022-09-02T22:56:02.405Z,92.41
2022-09-02T22:59:26.825Z,93.22
2022-09-02T23:02:36.329Z,94.07
2022-09-02T23:05:53.264Z,93.80
2022-09-02T23:08:57.355Z,95.82
2022-09-02T23:12:08.870Z,95.18
2022-09-02T23:15:24.787Z,93.63
2022-09-02T23:18:52.682Z,93.58
2022-09-02T23:22:05.836Z,91.42
2022-09-02T23:25:30.327Z,93.04
2022-09-02T23:28:43.640Z,93.69
2022-09-02T23:32:00.776Z,93.57
2022-09-02T23:35:17.669Z,91.38
2022-09-02T23:38:45.653Z,89.92
2022-09-02T23:41:48.980Z,91.62
2022-09-02T23:44:52.413Z,89.89
2022-09-02T23:48:11.891Z,90.88
2022-09-02T23:51:19.593Z,88.75
2022-09-02T23:54:47.520Z,87.90
2022-09-02T23:58:07.151Z,88.41
